createdAt,value
2023-06-29T00:01:12.677Z,74.14
2023-06-29T00:04:13.043Z,74.20
2023-06-29T00:06:51.574Z,74.50
2023-06-29T00:09:30.965Z,74.28
2023-06-29T00:12:11.059Z,74.44
2023-06-29T00:14:49.473Z,74.43
2023-06-29T00:17:28.920Z,74.78
2023-06-29T00:20:22.492Z,74.65
2023-06-29T00:22:54.185Z,74.78
2023-06-29T00:25:33.600Z,74.71
2023-06-29T00:28:13.818Z,74.68
2023-06-29T00:30:52.390Z,74.65
2023-06-29T00:33:31.332Z,74.43
2023-06-29T00:36:10.659Z,74.68
2023-06-29T00:38:49.495Z,74.52
2023-06-29T00:41:28.189Z,74.66
2023-06-29T00:44:06.513Z,74.84
2023-06-29T00:46:45.497Z,74.37
2023-06-29T00:49:24.682Z,74.36
2023-06-29T00:52:04.008Z,74.59
2023-06-29T00:54:43.487Z,74.29
2023-06-29T00:57:22.282Z,74.38
2023-06-29T01:00:01.067Z,74.55
2023-06-29T01:02:42.516Z,74.34
2023-06-29T01:05:22.713Z,74.07
2023-06-29T01:08:27.551Z,74.26
2023-06-29T01:10:59.944Z,74.82
2023-06-29T01:13:36.727Z,74.65
2023-06-29T01:16:16.436Z,74.53
2023-06-29T01:18:56.643Z,74.52
2023-06-29T01:21:38.050Z,74.64
2023-06-29T01:24:17.650Z,74.25
2023-06-29T01:26:56.106Z,74.88
2023-06-29T01:29:34.609Z,74.58
2023-06-29T01:32:15.540Z,74.69
2023-06-29T01:34:55.649Z,75.00
2023-06-29T01:37:38.962Z,74.85
2023-06-29T01:40:14.036Z,74.99
2023-06-29T01:42:53.943Z,75.05
2023-06-29T01:45:33.387Z,75.53
2023-06-29T01:48:06.506Z,75.55
2023-06-29T01:50:41.195Z,75.62
2023-06-29T01:53:20.072Z,75.60
2023-06-29T01:55:58.210Z,75.39
2023-06-29T01:58:37.134Z,75.88
2023-06-29T02:01:16.381Z,76.00
2023-06-29T02:03:55.161Z,76.13
2023-06-29T02:06:33.898Z,76.02
2023-06-29T02:09:05.961Z,76.07
2023-06-29T02:11:53.980Z,75.78
2023-06-29T02:14:32.466Z,76.06
2023-06-29T02:17:12.360Z,75.93
2023-06-29T02:19:51.247Z,75.83
2023-06-29T02:22:30.033Z,76.19
2023-06-29T02:25:00.327Z,76.29
2023-06-29T02:27:37.414Z,76.46
2023-06-29T02:30:16.305Z,76.36
2023-06-29T02:32:55.461Z,76.20
2023-06-29T02:35:33.935Z,76.32
2023-06-29T02:38:04.526Z,76.19
2023-06-29T02:40:43.040Z,76.06
2023-06-29T02:43:21.158Z,76.19
2023-06-29T02:45:59.670Z,76.07
2023-06-29T02:48:38.264Z,75.61
2023-06-29T02:51:16.419Z,76.03
2023-06-29T02:53:54.934Z,75.82
2023-06-29T02:56:33.635Z,75.61
2023-06-29T02:59:06.426Z,75.96
2023-06-29T03:01:38.899Z,75.69
2023-06-29T03:04:17.594Z,75.60
2023-06-29T03:06:49.278Z,75.58
2023-06-29T03:09:27.276Z,75.12
2023-06-29T03:12:05.948Z,75.15
2023-06-29T03:14:44.493Z,74.85
2023-06-29T03:17:25.990Z,74.93
2023-06-29T03:20:04.278Z,74.59
2023-06-29T03:22:42.303Z,74.52
2023-06-29T03:25:21.033Z,74.71
2023-06-29T03:27:59.659Z,74.55
2023-06-29T03:30:38.099Z,74.46
2023-06-29T03:33:16.605Z,74.20
2023-06-29T03:35:55.239Z,73.93
2023-06-29T03:38:33.504Z,73.98
2023-06-29T03:41:03.708Z,73.53
2023-06-29T03:43:39.812Z,73.72
2023-06-29T03:46:09.993Z,73.30
2023-06-29T03:48:50.927Z,72.99
2023-06-29T03:51:29.530Z,72.68
2023-06-29T03:54:09.158Z,72.92
2023-06-29T03:56:48.427Z,72.59
2023-06-29T03:59:26.984Z,72.38
2023-06-29T04:02:05.278Z,72.72
2023-06-29T04:04:45.093Z,72.61
2023-06-29T04:07:23.023Z,72.71
2023-06-29T04:09:53.512Z,72.53
2023-06-29T04:12:23.780Z,72.43
2023-06-29T04:14:54.063Z,72.56
2023-06-29T04:17:35.365Z,72.12
2023-06-29T04:20:15.016Z,71.59
2023-06-29T04:22:53.613Z,71.55
2023-06-29T04:25:34.477Z,71.67
2023-06-29T04:28:14.188Z,71.52
2023-06-29T04:30:52.459Z,72.01
2023-06-29T04:33:31.347Z,72.29
2023-06-29T04:36:16.940Z,72.38
2023-06-29T04:38:55.904Z,72.10
2023-06-29T04:41:37.917Z,72.08
2023-06-29T04:44:16.583Z,72.53
2023-06-29T04:46:54.830Z,72.20
2023-06-29T04:49:32.023Z,72.58
2023-06-29T04:52:12.089Z,72.56
2023-06-29T04:54:50.606Z,72.16
2023-06-29T04:57:29.933Z,72.31
2023-06-29T05:00:12.504Z,72.31
2023-06-29T05:02:51.786Z,72.37
2023-06-29T05:05:30.915Z,72.34
2023-06-29T05:08:11.823Z,72.59
2023-06-29T05:10:51.874Z,72.99
2023-06-29T05:13:30.295Z,72.91
2023-06-29T05:16:10.016Z,72.83
2023-06-29T05:18:48.248Z,73.02
2023-06-29T05:21:28.434Z,72.39
2023-06-29T05:24:06.668Z,72.11
2023-06-29T05:26:45.537Z,72.07
2023-06-29T05:29:23.566Z,72.05
2023-06-29T05:32:02.354Z,71.81
2023-06-29T05:34:41.529Z,72.00
2023-06-29T05:37:19.913Z,72.05
2023-06-29T05:40:00.893Z,72.55
2023-06-29T05:42:31.329Z,72.08
2023-06-29T05:45:04.309Z,72.17
2023-06-29T05:47:42.571Z,72.06
2023-06-29T05:50:21.914Z,71.75
2023-06-29T05:53:00.285Z,71.33
2023-06-29T05:55:38.232Z,71.70
2023-06-29T05:58:16.911Z,71.71
2023-06-29T06:00:55.199Z,71.52
2023-06-29T06:03:32.705Z,71.70
2023-06-29T06:06:12.199Z,71.16
2023-06-29T06:08:49.644Z,71.15
2023-06-29T06:11:27.177Z,71.20
2023-06-29T06:14:05.425Z,71.49
2023-06-29T06:16:38.464Z,71.38
2023-06-29T06:19:17.946Z,70.92
2023-06-29T06:21:48.391Z,70.51
2023-06-29T06:24:24.802Z,70.53
2023-06-29T06:27:02.776Z,70.38
2023-06-29T06:29:33.171Z,70.19
2023-06-29T06:32:13.446Z,70.25
2023-06-29T06:34:50.178Z,70.23
2023-06-29T06:37:27.961Z,69.34
2023-06-29T06:40:19.121Z,68.72
2023-06-29T06:42:58.978Z,68.44
2023-06-29T06:45:37.920Z,67.62
2023-06-29T06:48:16.246Z,67.15
2023-06-29T06:50:55.104Z,65.93
2023-06-29T06:53:33.575Z,64.84
2023-06-29T06:56:12.455Z,63.50
2023-06-29T06:58:51.513Z,63.13
2023-06-29T07:01:29.935Z,61.79
2023-06-29T07:04:09.133Z,59.92
2023-06-29T07:06:47.967Z,58.70
2023-06-29T07:09:21.020Z,56.89
2023-06-29T07:12:00.903Z,55.88
2023-06-29T07:14:34.831Z,56.14
2023-06-29T07:17:08.556Z,54.98
2023-06-29T07:25:09.331Z,52.04
2023-06-29T07:27:46.640Z,51.32
2023-06-29T07:30:25.418Z,50.94
2023-06-29T07:33:03.425Z,50.01
2023-06-29T07:35:41.411Z,50.42
2023-06-29T07:38:19.129Z,49.92
2023-06-29T07:40:56.927Z,49.28
2023-06-29T07:43:34.420Z,49.27
2023-06-29T07:46:12.341Z,48.73
2023-06-29T07:48:51.397Z,48.53
2023-06-29T07:51:35.890Z,48.22
2023-06-29T07:54:14.380Z,47.22
2023-06-29T07:59:33.880Z,46.96
2023-06-29T08:02:13.076Z,46.76
2023-06-29T08:07:36.390Z,45.85
2023-06-29T08:10:14.828Z,44.97
2023-06-29T08:12:54.194Z,44.19
2023-06-29T08:15:31.994Z,43.34
2023-06-29T08:18:12.758Z,44.19
2023-06-29T08:20:50.616Z,43.42
2023-06-29T08:23:21.216Z,42.37
2023-06-29T08:25:51.880Z,42.46
2023-06-29T08:28:28.398Z,41.99
2023-06-29T08:31:07.842Z,41.93
2023-06-29T08:33:46.000Z,41.11
2023-06-29T08:36:26.909Z,40.47
2023-06-29T08:39:05.616Z,40.83
2023-06-29T08:41:43.297Z,40.04
2023-06-29T08:44:21.013Z,39.54
2023-06-29T08:47:02.456Z,38.39
2023-06-29T08:49:44.007Z,38.41
2023-06-29T08:52:27.818Z,38.76
2023-06-29T08:54:58.954Z,38.62
2023-06-29T08:57:37.714Z,38.16
2023-06-29T09:00:17.093Z,37.54
2023-06-29T09:02:57.285Z,37.12
2023-06-29T09:05:37.518Z,36.82
2023-06-29T09:08:15.390Z,36.98
2023-06-29T09:10:54.070Z,36.56
2023-06-29T09:13:36.369Z,36.19
2023-06-29T09:16:16.109Z,35.74
2023-06-29T09:19:00.726Z,35.19
2023-06-29T09:21:39.950Z,35.07
2023-06-29T09:24:21.447Z,34.65
2023-06-29T09:27:03.495Z,35.40
2023-06-29T09:29:50.382Z,35.80
2023-06-29T09:32:30.915Z,35.22
2023-06-29T09:35:11.273Z,35.87
2023-06-29T09:37:51.315Z,35.20
2023-06-29T09:40:30.131Z,34.68
2023-06-29T09:43:23.630Z,33.75
2023-06-29T09:46:13.666Z,33.62
2023-06-29T09:51:36.703Z,34.11
2023-06-29T09:54:21.577Z,33.68
2023-06-29T09:57:00.672Z,33.72
2023-06-29T09:59:51.468Z,32.04
2023-06-29T10:02:31.715Z,30.89
2023-06-29T10:05:10.210Z,31.83
2023-06-29T10:07:48.928Z,32.94
2023-06-29T10:10:29.993Z,33.28
2023-06-29T10:13:10.759Z,34.08
2023-06-29T10:15:50.857Z,33.83
2023-06-29T10:18:42.392Z,33.76
2023-06-29T10:21:15.456Z,33.60
2023-06-29T10:23:53.084Z,33.79
2023-06-29T10:26:31.440Z,32.95
2023-06-29T10:29:12.535Z,32.11
2023-06-29T10:31:50.460Z,32.13
2023-06-29T10:34:21.193Z,32.06
2023-06-29T10:37:04.646Z,32.33
2023-06-29T10:39:49.848Z,32.23
2023-06-29T10:42:31.905Z,32.39
2023-06-29T10:45:25.125Z,32.16
2023-06-29T10:48:07.997Z,32.61
2023-06-29T10:50:54.885Z,32.41
2023-06-29T10:53:37.830Z,32.13
2023-06-29T10:56:33.187Z,31.98
2023-06-29T10:59:14.683Z,32.71
2023-06-29T11:01:53.294Z,31.93
2023-06-29T11:04:32.984Z,31.57
2023-06-29T11:07:14.216Z,31.94
2023-06-29T11:10:02.459Z,30.88
2023-06-29T11:12:35.211Z,31.72
2023-06-29T11:15:22.045Z,32.35
2023-06-29T11:17:56.878Z,32.90
2023-06-29T11:20:36.496Z,33.05
2023-06-29T11:23:14.898Z,32.86
2023-06-29T11:25:54.613Z,31.97
2023-06-29T11:28:35.546Z,31.86
2023-06-29T11:31:16.878Z,31.80
2023-06-29T11:33:55.645Z,32.41
2023-06-29T11:36:38.395Z,32.21
2023-06-29T11:39:15.511Z,31.67
2023-06-29T11:41:55.375Z,31.77
2023-06-29T11:44:34.556Z,31.97
2023-06-29T11:47:32.107Z,32.23
2023-06-29T11:50:17.097Z,32.86
2023-06-29T11:52:55.210Z,32.38
2023-06-29T11:55:34.662Z,32.41
2023-06-29T11:58:16.086Z,32.96
2023-06-29T12:00:59.791Z,32.86
2023-06-29T12:03:40.226Z,32.84
2023-06-29T12:06:19.881Z,32.88
2023-06-29T12:08:53.382Z,32.11
2023-06-29T12:11:32.424Z,32.21
2023-06-29T12:14:14.156Z,32.19
2023-06-29T12:19:59.079Z,32.17
2023-06-29T12:22:35.911Z,32.28
2023-06-29T12:25:19.122Z,32.73
2023-06-29T12:27:53.715Z,32.74
2023-06-29T12:30:34.194Z,31.67
2023-06-29T12:33:15.756Z,31.87
2023-06-29T12:35:54.028Z,31.82
2023-06-29T12:38:33.333Z,32.26
2023-06-29T12:41:12.081Z,32.76
2023-06-29T12:43:51.555Z,33.10
2023-06-29T12:46:30.203Z,32.90
2023-06-29T12:49:10.255Z,32.92
2023-06-29T12:51:48.801Z,32.68
2023-06-29T12:54:27.380Z,32.28
2023-06-29T12:57:05.937Z,32.40
2023-06-29T12:59:44.036Z,32.67
2023-06-29T13:02:22.149Z,33.03
2023-06-29T13:04:59.632Z,33.06
2023-06-29T13:07:38.513Z,32.95
2023-06-29T13:10:16.078Z,33.11
2023-06-29T13:12:54.504Z,32.58
2023-06-29T13:15:32.324Z,32.25
2023-06-29T13:18:11.137Z,32.09
2023-06-29T13:20:41.961Z,32.19
2023-06-29T13:23:17.545Z,31.89
2023-06-29T13:25:55.228Z,31.93
2023-06-29T13:28:34.420Z,31.90
2023-06-29T13:31:09.348Z,32.15
2023-06-29T13:33:43.942Z,32.09
2023-06-29T13:36:22.649Z,32.51
2023-06-29T13:39:01.976Z,32.30
2023-06-29T13:41:46.327Z,32.68
2023-06-29T13:44:23.950Z,32.84
2023-06-29T13:47:02.839Z,32.58
2023-06-29T13:49:43.457Z,32.75
2023-06-29T13:52:21.081Z,33.02
2023-06-29T13:54:59.539Z,33.24
2023-06-29T13:57:37.134Z,33.29
2023-06-29T14:00:16.407Z,33.55
2023-06-29T14:02:54.458Z,33.18
2023-06-29T14:05:31.063Z,33.51
2023-06-29T14:08:01.810Z,34.44
2023-06-29T14:10:39.180Z,35.32
2023-06-29T14:13:17.542Z,36.94
2023-06-29T14:15:56.032Z,38.71
2023-06-29T14:18:35.821Z,41.94
2023-06-29T14:21:15.891Z,45.79
2023-06-29T14:23:55.886Z,47.94
2023-06-29T14:26:34.330Z,48.48
2023-06-29T14:29:13.141Z,49.31
2023-06-29T14:31:51.632Z,49.50
2023-06-29T14:34:30.375Z,49.38
2023-06-29T14:37:10.082Z,49.75
2023-06-29T14:39:49.085Z,49.59
2023-06-29T14:42:28.767Z,49.91
2023-06-29T14:45:06.832Z,49.07
2023-06-29T14:47:38.716Z,49.02
2023-06-29T14:50:17.543Z,48.28
2023-06-29T14:52:56.702Z,48.31
2023-06-29T14:55:35.740Z,47.93
2023-06-29T14:58:14.966Z,47.72
2023-06-29T15:00:54.846Z,47.91
2023-06-29T15:03:26.579Z,47.45
2023-06-29T15:06:00.927Z,47.65
2023-06-29T15:08:41.135Z,47.13
2023-06-29T15:11:11.758Z,46.82
2023-06-29T15:13:50.388Z,46.55
2023-06-29T15:16:31.019Z,46.10
2023-06-29T15:19:10.305Z,45.18
2023-06-29T15:21:50.442Z,45.30
2023-06-29T15:24:27.990Z,45.12
2023-06-29T15:27:07.052Z,44.82
2023-06-29T15:29:45.697Z,45.12
2023-06-29T15:32:25.342Z,44.61
2023-06-29T15:35:04.725Z,44.65
2023-06-29T15:37:43.929Z,44.39
2023-06-29T15:40:24.172Z,44.37
2023-06-29T15:43:01.972Z,44.04
2023-06-29T15:45:40.715Z,43.84
2023-06-29T15:48:18.179Z,43.63
2023-06-29T15:50:49.360Z,43.67
2023-06-29T15:53:22.481Z,43.91
2023-06-29T15:56:00.403Z,43.55
2023-06-29T15:58:40.318Z,43.59
2023-06-29T16:01:19.851Z,43.39
2023-06-29T16:03:58.958Z,43.04
2023-06-29T16:06:37.376Z,43.04
2023-06-29T16:09:16.078Z,43.09
2023-06-29T16:11:53.712Z,42.89
2023-06-29T16:14:31.974Z,42.85
2023-06-29T16:17:11.689Z,43.23
2023-06-29T16:19:42.102Z,43.37
2023-06-29T16:22:20.215Z,43.49
2023-06-29T16:24:58.544Z,43.92
2023-06-29T16:27:37.049Z,43.48
2023-06-29T16:30:08.275Z,43.59
2023-06-29T16:32:43.144Z,43.41
2023-06-29T16:35:21.277Z,42.92
2023-06-29T16:37:59.035Z,42.57
2023-06-29T16:40:37.019Z,42.02
2023-06-29T16:43:15.704Z,42.30
2023-06-29T16:45:54.689Z,42.45
2023-06-29T16:48:33.484Z,42.69
2023-06-29T16:51:12.506Z,42.48
2023-06-29T16:53:47.192Z,42.86
2023-06-29T16:56:25.193Z,42.75
2023-06-29T16:59:03.386Z,42.69
2023-06-29T17:01:33.931Z,43.03
2023-06-29T17:04:04.965Z,42.99
2023-06-29T17:06:43.438Z,42.73
2023-06-29T17:09:21.888Z,42.43
2023-06-29T17:12:00.548Z,42.79
2023-06-29T17:14:31.172Z,43.04
2023-06-29T17:17:10.814Z,43.09
2023-06-29T17:19:50.500Z,43.07
2023-06-29T17:22:28.515Z,43.26
2023-06-29T17:25:07.570Z,43.37
2023-06-29T17:27:46.256Z,43.52
2023-06-29T17:30:24.737Z,43.67
2023-06-29T17:33:04.878Z,43.47
2023-06-29T17:35:44.630Z,43.54
2023-06-29T17:38:24.135Z,43.81
2023-06-29T17:41:02.757Z,43.47
2023-06-29T17:43:42.553Z,43.60
2023-06-29T17:46:22.051Z,43.63
2023-06-29T17:49:01.569Z,43.59
2023-06-29T17:51:33.020Z,43.46
2023-06-29T17:54:06.260Z,43.55
2023-06-29T17:56:44.760Z,43.82
2023-06-29T17:59:24.180Z,43.93
2023-06-29T18:02:02.747Z,44.08
2023-06-29T18:04:41.097Z,44.50
2023-06-29T18:07:19.597Z,44.25
2023-06-29T18:09:58.819Z,44.41
2023-06-29T18:12:37.226Z,44.33
2023-06-29T18:15:16.927Z,44.63
2023-06-29T18:17:57.485Z,44.75
2023-06-29T18:20:38.037Z,44.99
2023-06-29T18:23:16.784Z,45.01
2023-06-29T18:25:47.938Z,45.11
2023-06-29T18:28:26.713Z,45.14
2023-06-29T18:31:05.654Z,46.17
2023-06-29T18:33:43.770Z,48.16
2023-06-29T18:36:21.795Z,50.01
2023-06-29T18:39:04.839Z,50.24
2023-06-29T18:41:42.993Z,50.96
2023-06-29T18:44:20.937Z,52.10
2023-06-29T18:47:18.749Z,58.73
2023-06-29T18:49:58.662Z,64.36
2023-06-29T18:52:36.894Z,66.48
2023-06-29T18:55:15.730Z,68.24
2023-06-29T18:57:53.876Z,69.20
2023-06-29T19:00:31.738Z,70.44
2023-06-29T19:03:02.036Z,69.86
2023-06-29T19:05:33.653Z,70.47
2023-06-29T19:08:08.373Z,71.11
2023-06-29T19:10:46.965Z,70.54
2023-06-29T19:13:27.727Z,71.68
2023-06-29T19:16:06.716Z,71.80
2023-06-29T19:18:46.286Z,72.55
2023-06-29T19:21:32.342Z,73.41
2023-06-29T19:24:12.524Z,73.07
2023-06-29T19:26:48.707Z,73.64
2023-06-29T19:29:28.459Z,72.11
2023-06-29T19:32:07.810Z,73.18
2023-06-29T19:34:45.659Z,73.13
2023-06-29T19:37:26.609Z,73.65
2023-06-29T19:40:04.783Z,73.46
2023-06-29T19:42:42.836Z,73.31
2023-06-29T19:45:20.538Z,73.13
2023-06-29T19:47:58.959Z,72.76
2023-06-29T19:50:38.436Z,72.18
2023-06-29T19:53:16.966Z,73.15
2023-06-29T19:55:56.438Z,71.74
2023-06-29T19:58:34.334Z,72.03
2023-06-29T20:01:13.004Z,72.10
2023-06-29T20:03:51.167Z,71.94
2023-06-29T20:06:29.379Z,71.56
2023-06-29T20:09:08.191Z,71.97
2023-06-29T20:11:45.238Z,72.28
2023-06-29T20:14:15.769Z,72.68
2023-06-29T20:16:50.576Z,72.52
2023-06-29T20:19:28.272Z,72.80
2023-06-29T20:22:06.867Z,73.26
2023-06-29T20:24:44.997Z,73.53
2023-06-29T20:27:23.097Z,73.34
2023-06-29T20:30:00.990Z,73.50
2023-06-29T20:32:39.447Z,73.80
2023-06-29T20:35:18.725Z,74.45
2023-06-29T20:37:56.285Z,74.43
2023-06-29T20:40:34.775Z,74.81
2023-06-29T20:43:14.700Z,75.05
2023-06-29T20:45:45.979Z,75.24
2023-06-29T20:48:18.771Z,75.29
2023-06-29T20:51:00.726Z,74.94
2023-06-29T20:53:48.770Z,76.00
2023-06-29T20:56:26.960Z,78.08
2023-06-29T20:59:04.773Z,78.75
2023-06-29T21:01:35.514Z,78.85
2023-06-29T21:04:12.023Z,78.14
2023-06-29T21:06:49.748Z,77.64
2023-06-29T21:09:27.217Z,77.44
2023-06-29T21:12:04.636Z,78.44
2023-06-29T21:14:41.748Z,78.27
2023-06-29T21:17:19.944Z,77.88
2023-06-29T21:20:01.018Z,77.65
2023-06-29T21:22:39.806Z,77.06
2023-06-29T21:25:18.290Z,77.81
2023-06-29T21:27:56.476Z,77.47
2023-06-29T21:30:36.019Z,77.27
2023-06-29T21:33:14.248Z,76.97
2023-06-29T21:35:52.825Z,77.13
2023-06-29T21:38:32.401Z,76.81
2023-06-29T21:41:11.194Z,76.88
2023-06-29T21:43:48.600Z,75.96
2023-06-29T21:46:26.319Z,75.25
2023-06-29T21:48:59.469Z,75.18
2023-06-29T21:51:33.424Z,76.22
2023-06-29T21:54:15.196Z,75.34
2023-06-29T21:56:52.898Z,75.58
2023-06-29T21:59:30.878Z,74.96
2023-06-29T22:02:08.882Z,74.69
2023-06-29T22:04:46.787Z,75.42
2023-06-29T22:07:24.734Z,75.21
2023-06-29T22:10:03.742Z,74.28
2023-06-29T22:12:44.686Z,74.72
2023-06-29T22:15:22.698Z,76.18
2023-06-29T22:18:01.791Z,76.11
2023-06-29T22:20:39.607Z,75.86
2023-06-29T22:23:17.704Z,76.29
2023-06-29T22:25:55.723Z,76.80
2023-06-29T22:28:33.330Z,76.20
2023-06-29T22:31:05.371Z,75.81
2023-06-29T22:33:43.384Z,76.32
2023-06-29T22:36:18.227Z,76.61
2023-06-29T22:38:50.154Z,76.72
2023-06-29T22:41:28.735Z,76.92
2023-06-29T22:44:06.596Z,77.04
2023-06-29T22:46:44.466Z,77.09
2023-06-29T22:49:22.480Z,76.86
2023-06-29T22:51:59.544Z,76.93
2023-06-29T22:54:36.970Z,76.91
2023-06-29T22:57:14.857Z,76.91
2023-06-29T22:59:54.255Z,76.85
2023-06-29T23:02:32.120Z,76.77
2023-06-29T23:05:11.123Z,77.18
2023-06-29T23:07:48.744Z,77.45
2023-06-29T23:10:30.965Z,77.13
2023-06-29T23:13:18.438Z,76.83
2023-06-29T23:15:55.870Z,76.75
2023-06-29T23:18:33.165Z,77.18
2023-06-29T23:21:13.674Z,77.61
2023-06-29T23:23:57.021Z,77.21
2023-06-29T23:26:35.858Z,77.13
2023-06-29T23:29:14.132Z,77.34
2023-06-29T23:31:52.730Z,77.34
2023-06-29T23:34:31.282Z,77.54
2023-06-29T23:37:11.592Z,77.78
2023-06-29T23:39:49.669Z,77.47
2023-06-29T23:42:27.430Z,77.26
2023-06-29T23:45:04.851Z,77.13
2023-06-29T23:47:34.671Z,77.22
2023-06-29T23:50:12.928Z,77.10
2023-06-29T23:52:51.277Z,77.27
2023-06-29T23:55:30.573Z,77.22
2023-06-29T23:58:09.366Z,77.46
